sensor_id;sensor_type;location;lat;lon;timestamp;pressure;altitude;pressure_sealevel;temperature;humidity
18504;BME280;9381;54.244;10.074;2023-05-16T00:01:44;100711.22;;;12.19;92.50
18504;BME280;9381;54.244;10.074;2023-05-16T00:06:44;100708.28;;;12.20;91.54
18504;BME280;9381;54.244;10.074;2023-05-16T00:11:45;100702.88;;;12.20;92.04
18504;BME280;9381;54.244;10.074;2023-05-16T00:16:47;100708.56;;;12.30;91.60
18504;BME280;9381;54.244;10.074;2023-05-16T00:21:47;100704.50;;;12.21;91.41
18504;BME280;9381;54.244;10.074;2023-05-16T00:26:47;100711.13;;;12.25;91.53
18504;BME280;9381;54.244;10.074;2023-05-16T00:31:48;100712.19;;;12.24;92.02
18504;BME280;9381;54.244;10.074;2023-05-16T00:36:49;100718.81;;;12.28;91.43
18504;BME280;9381;54.244;10.074;2023-05-16T00:41:49;100721.13;;;12.43;91.14
18504;BME280;9381;54.244;10.074;2023-05-16T00:46:49;100712.53;;;12.46;90.88
18504;BME280;9381;54.244;10.074;2023-05-16T00:51:50;100729.56;;;12.53;91.42
18504;BME280;9381;54.244;10.074;2023-05-16T00:56:51;100727.97;;;12.45;91.30
18504;BME280;9381;54.244;10.074;2023-05-16T01:01:52;100727.63;;;12.42;90.89
18504;BME280;9381;54.244;10.074;2023-05-16T01:06:54;100725.41;;;12.50;91.83
18504;BME280;9381;54.244;10.074;2023-05-16T01:12:10;100726.00;;;12.52;91.94
18504;BME280;9381;54.244;10.074;2023-05-16T01:22:33;100722.28;;;12.65;91.97
18504;BME280;9381;54.244;10.074;2023-05-16T01:27:37;100729.16;;;12.67;92.22
18504;BME280;9381;54.244;10.074;2023-05-16T01:32:38;100729.00;;;12.62;92.06
18504;BME280;9381;54.244;10.074;2023-05-16T01:37:57;100738.09;;;12.68;91.28
18504;BME280;9381;54.244;10.074;2023-05-16T01:42:58;100733.34;;;12.63;90.74
18504;BME280;9381;54.244;10.074;2023-05-16T01:48:06;100733.47;;;12.57;89.89
18504;BME280;9381;54.244;10.074;2023-05-16T01:53:11;100740.47;;;12.64;89.34
18504;BME280;9381;54.244;10.074;2023-05-16T01:58:15;100740.69;;;12.63;88.03
18504;BME280;9381;54.244;10.074;2023-05-16T02:03:16;100737.44;;;12.54;87.65
18504;BME280;9381;54.244;10.074;2023-05-16T02:08:16;100741.06;;;12.66;87.14
18504;BME280;9381;54.244;10.074;2023-05-16T02:13:17;100743.63;;;12.61;85.99
18504;BME280;9381;54.244;10.074;2023-05-16T02:18:17;100752.91;;;12.54;86.87
18504;BME280;9381;54.244;10.074;2023-05-16T02:23:17;100748.47;;;12.59;87.06
18504;BME280;9381;54.244;10.074;2023-05-16T02:28:18;100742.28;;;12.52;86.50
18504;BME280;9381;54.244;10.074;2023-05-16T02:33:18;100745.38;;;12.56;86.75
18504;BME280;9381;54.244;10.074;2023-05-16T02:38:18;100751.63;;;12.56;86.50
18504;BME280;9381;54.244;10.074;2023-05-16T02:43:20;100755.94;;;12.46;86.66
18504;BME280;9381;54.244;10.074;2023-05-16T02:48:20;100754.97;;;12.40;86.98
18504;BME280;9381;54.244;10.074;2023-05-16T02:53:20;100767.25;;;12.43;86.17
18504;BME280;9381;54.244;10.074;2023-05-16T02:58:20;100759.63;;;12.33;86.45
18504;BME280;9381;54.244;10.074;2023-05-16T03:03:21;100759.19;;;12.36;86.57
18504;BME280;9381;54.244;10.074;2023-05-16T03:08:21;100747.81;;;12.46;85.85
18504;BME280;9381;54.244;10.074;2023-05-16T03:13:22;100746.38;;;12.43;85.79
18504;BME280;9381;54.244;10.074;2023-05-16T03:18:22;100763.47;;;12.44;84.89
18504;BME280;9381;54.244;10.074;2023-05-16T03:23:23;100755.56;;;12.42;85.32
18504;BME280;9381;54.244;10.074;2023-05-16T03:28:24;100765.59;;;12.42;85.15
18504;BME280;9381;54.244;10.074;2023-05-16T03:33:24;100768.53;;;12.40;85.01
18504;BME280;9381;54.244;10.074;2023-05-16T03:38:24;100786.00;;;12.44;84.85
18504;BME280;9381;54.244;10.074;2023-05-16T03:43:25;100782.56;;;12.19;85.56
18504;BME280;9381;54.244;10.074;2023-05-16T03:48:25;100774.72;;;12.11;86.08
18504;BME280;9381;54.244;10.074;2023-05-16T03:53:25;100792.63;;;12.12;85.87
18504;BME280;9381;54.244;10.074;2023-05-16T03:58:26;100786.97;;;12.32;86.75
18504;BME280;9381;54.244;10.074;2023-05-16T04:03:26;100799.63;;;12.20;86.45
18504;BME280;9381;54.244;10.074;2023-05-16T04:08:28;100792.41;;;12.32;86.51
18504;BME280;9381;54.244;10.074;2023-05-16T04:13:29;100799.25;;;12.34;85.71
18504;BME280;9381;54.244;10.074;2023-05-16T04:18:29;100802.56;;;12.18;86.77
18504;BME280;9381;54.244;10.074;2023-05-16T04:23:29;100812.69;;;12.29;90.34
18504;BME280;9381;54.244;10.074;2023-05-16T04:28:30;100812.53;;;12.24;93.03
18504;BME280;9381;54.244;10.074;2023-05-16T04:33:31;100814.94;;;12.14;94.35
18504;BME280;9381;54.244;10.074;2023-05-16T04:38:31;100824.88;;;12.02;94.30
18504;BME280;9381;54.244;10.074;2023-05-16T04:43:32;100831.56;;;12.00;93.69
18504;BME280;9381;54.244;10.074;2023-05-16T04:48:33;100835.00;;;11.89;91.88
18504;BME280;9381;54.244;10.074;2023-05-16T04:53:33;100840.75;;;11.99;90.62
18504;BME280;9381;54.244;10.074;2023-05-16T04:58:33;100846.66;;;11.89;89.62
18504;BME280;9381;54.244;10.074;2023-05-16T05:03:33;100842.56;;;11.80;88.61
18504;BME280;9381;54.244;10.074;2023-05-16T05:08:35;100849.84;;;12.04;86.93
18504;BME280;9381;54.244;10.074;2023-05-16T05:13:35;100850.63;;;12.11;87.34
18504;BME280;9381;54.244;10.074;2023-05-16T05:18:35;100842.13;;;12.26;85.72
18504;BME280;9381;54.244;10.074;2023-05-16T05:23:36;100853.63;;;12.03;83.00
18504;BME280;9381;54.244;10.074;2023-05-16T05:28:36;100859.56;;;12.12;82.45
18504;BME280;9381;54.244;10.074;2023-05-16T05:33:37;100855.47;;;12.09;80.89
18504;BME280;9381;54.244;10.074;2023-05-16T05:38:37;100865.09;;;12.23;80.68
18504;BME280;9381;54.244;10.074;2023-05-16T05:43:37;100870.53;;;12.23;79.84
18504;BME280;9381;54.244;10.074;2023-05-16T05:48:38;100880.81;;;12.39;79.66
18504;BME280;9381;54.244;10.074;2023-05-16T05:53:39;100875.69;;;12.49;78.08
18504;BME280;9381;54.244;10.074;2023-05-16T05:58:40;100867.53;;;12.49;76.76
18504;BME280;9381;54.244;10.074;2023-05-16T06:03:43;100871.31;;;12.66;76.68
18504;BME280;9381;54.244;10.074;2023-05-16T06:08:43;100873.56;;;12.87;75.85
18504;BME280;9381;54.244;10.074;2023-05-16T06:13:44;100880.81;;;12.75;74.63
18504;BME280;9381;54.244;10.074;2023-05-16T06:18:44;100886.63;;;12.61;75.81
18504;BME280;9381;54.244;10.074;2023-05-16T06:23:44;100897.06;;;12.39;76.20
18504;BME280;9381;54.244;10.074;2023-05-16T06:28:45;100906.28;;;12.38;77.08
18504;BME280;9381;54.244;10.074;2023-05-16T06:33:45;100891.66;;;12.57;77.26
18504;BME280;9381;54.244;10.074;2023-05-16T06:38:45;100887.72;;;12.89;74.45
18504;BME280;9381;54.244;10.074;2023-05-16T06:43:46;100883.69;;;12.98;74.33
18504;BME280;9381;54.244;10.074;2023-05-16T06:48:46;100902.69;;;12.98;72.89
18504;BME280;9381;54.244;10.074;2023-05-16T06:53:46;100902.97;;;13.08;72.84
18504;BME280;9381;54.244;10.074;2023-05-16T06:58:46;100904.25;;;13.24;71.10
18504;BME280;9381;54.244;10.074;2023-05-16T07:03:48;100903.09;;;13.61;71.00
18504;BME280;9381;54.244;10.074;2023-05-16T07:08:49;100909.91;;;13.52;69.21
18504;BME280;9381;54.244;10.074;2023-05-16T07:13:49;100912.00;;;13.50;69.07
18504;BME280;9381;54.244;10.074;2023-05-16T07:18:49;100911.09;;;13.26;68.07
18504;BME280;9381;54.244;10.074;2023-05-16T07:23:50;100925.78;;;13.37;68.71
18504;BME280;9381;54.244;10.074;2023-05-16T07:28:51;100932.56;;;13.46;69.48
18504;BME280;9381;54.244;10.074;2023-05-16T07:33:52;100930.25;;;13.31;70.36
18504;BME280;9381;54.244;10.074;2023-05-16T07:38:52;100933.91;;;13.55;70.06
18504;BME280;9381;54.244;10.074;2023-05-16T07:43:52;100924.34;;;13.64;67.74
18504;BME280;9381;54.244;10.074;2023-05-16T07:48:53;100936.50;;;13.61;70.13
18504;BME280;9381;54.244;10.074;2023-05-16T07:53:53;100923.59;;;13.86;70.91
18504;BME280;9381;54.244;10.074;2023-05-16T07:58:53;100926.34;;;14.09;67.96
18504;BME280;9381;54.244;10.074;2023-05-16T08:03:54;100914.78;;;14.60;66.06
18504;BME280;9381;54.244;10.074;2023-05-16T08:08:54;100916.56;;;14.54;64.68
18504;BME280;9381;54.244;10.074;2023-05-16T08:13:55;100935.22;;;14.16;63.79
18504;BME280;9381;54.244;10.074;2023-05-16T08:18:55;100946.78;;;14.53;64.37
18504;BME280;9381;54.244;10.074;2023-05-16T08:23:57;100926.03;;;14.63;64.07
18504;BME280;9381;54.244;10.074;2023-05-16T08:28:57;100931.84;;;14.32;61.95
18504;BME280;9381;54.244;10.074;2023-05-16T08:33:57;100941.50;;;14.17;62.11
18504;BME280;9381;54.244;10.074;2023-05-16T08:38:57;100927.09;;;14.62;60.42
18504;BME280;9381;54.244;10.074;2023-05-16T08:43:58;100937.50;;;14.88;59.09
18504;BME280;9381;54.244;10.074;2023-05-16T08:48:59;100935.69;;;15.05;58.58
18504;BME280;9381;54.244;10.074;2023-05-16T08:54:05;100922.59;;;15.30;56.27
18504;BME280;9381;54.244;10.074;2023-05-16T08:59:10;100927.88;;;14.97;56.93
18504;BME280;9381;54.244;10.074;2023-05-16T09:04:14;100932.16;;;14.93;56.13
18504;BME280;9381;54.244;10.074;2023-05-16T09:09:14;100931.69;;;14.96;57.48
18504;BME280;9381;54.244;10.074;2023-05-16T09:14:15;100932.72;;;15.06;57.84
18504;BME280;9381;54.244;10.074;2023-05-16T09:19:15;100928.72;;;15.65;59.33
18504;BME280;9381;54.244;10.074;2023-05-16T09:24:16;100926.22;;;16.24;56.59
18504;BME280;9381;54.244;10.074;2023-05-16T09:29:16;100932.25;;;16.10;54.25
18504;BME280;9381;54.244;10.074;2023-05-16T09:34:22;100926.53;;;16.99;57.67
18504;BME280;9381;54.244;10.074;2023-05-16T09:39:26;100911.88;;;17.05;53.83
18504;BME280;9381;54.244;10.074;2023-05-16T09:44:26;100933.59;;;16.24;55.59
18504;BME280;9381;54.244;10.074;2023-05-16T09:49:27;100942.59;;;16.08;57.40
18504;BME280;9381;54.244;10.074;2023-05-16T09:54:31;100925.41;;;16.57;56.64
18504;BME280;9381;54.244;10.074;2023-05-16T09:59:38;100931.16;;;17.63;58.06
18504;BME280;9381;54.244;10.074;2023-05-16T10:04:39;100932.88;;;17.69;54.33
18504;BME280;9381;54.244;10.074;2023-05-16T10:09:40;100934.31;;;17.50;55.06
18504;BME280;9381;54.244;10.074;2023-05-16T10:14:42;100940.28;;;16.66;56.14
18504;BME280;9381;54.244;10.074;2023-05-16T10:19:46;100934.50;;;17.22;56.45
18504;BME280;9381;54.244;10.074;2023-05-16T10:24:51;100915.81;;;18.19;51.08
18504;BME280;9381;54.244;10.074;2023-05-16T10:29:54;100929.78;;;18.18;48.27
18504;BME280;9381;54.244;10.074;2023-05-16T10:34:54;100932.88;;;17.69;50.63
18504;BME280;9381;54.244;10.074;2023-05-16T10:39:56;100944.28;;;17.18;50.68
18504;BME280;9381;54.244;10.074;2023-05-16T10:45:18;100936.03;;;17.13;51.41
18504;BME280;9381;54.244;10.074;2023-05-16T10:50:37;100944.22;;;16.75;56.12
18504;BME280;9381;54.244;10.074;2023-05-16T10:55:39;100975.31;;;15.91;60.98
18504;BME280;9381;54.244;10.074;2023-05-16T11:00:39;100988.16;;;15.51;65.59
18504;BME280;9381;54.244;10.074;2023-05-16T11:05:40;100983.69;;;15.57;66.90
18504;BME280;9381;54.244;10.074;2023-05-16T11:10:40;100985.97;;;16.21;65.83
18504;BME280;9381;54.244;10.074;2023-05-16T11:15:40;100996.38;;;16.24;63.57
18504;BME280;9381;54.244;10.074;2023-05-16T11:20:41;101020.56;;;16.48;62.26
18504;BME280;9381;54.244;10.074;2023-05-16T11:25:44;101013.34;;;15.19;73.16
18504;BME280;9381;54.244;10.074;2023-05-16T11:30:50;101008.28;;;14.42;75.31
18504;BME280;9381;54.244;10.074;2023-05-16T11:36:06;100997.63;;;14.52;76.68
18504;BME280;9381;54.244;10.074;2023-05-16T11:41:07;100993.47;;;14.95;74.37
18504;BME280;9381;54.244;10.074;2023-05-16T11:46:11;100994.31;;;14.84;73.15
18504;BME280;9381;54.244;10.074;2023-05-16T11:51:12;101024.41;;;13.85;79.60
18504;BME280;9381;54.244;10.074;2023-05-16T11:56:19;101017.50;;;13.71;82.82
18504;BME280;9381;54.244;10.074;2023-05-16T12:01:20;101022.28;;;13.57;83.71
18504;BME280;9381;54.244;10.074;2023-05-16T12:06:21;101021.47;;;13.21;85.86
18504;BME280;9381;54.244;10.074;2023-05-16T12:11:24;101027.06;;;13.73;85.68
18504;BME280;9381;54.244;10.074;2023-05-16T12:16:25;101021.13;;;14.24;84.93
18504;BME280;9381;54.244;10.074;2023-05-16T12:21:25;101020.59;;;14.45;75.82
18504;BME280;9381;54.244;10.074;2023-05-16T12:26:30;101021.19;;;13.76;77.10
18504;BME280;9381;54.244;10.074;2023-05-16T12:31:35;101028.75;;;13.74;82.93
18504;BME280;9381;54.244;10.074;2023-05-16T12:36:36;101018.88;;;13.91;84.23
18504;BME280;9381;54.244;10.074;2023-05-16T12:41:39;101017.75;;;14.51;86.25
18504;BME280;9381;54.244;10.074;2023-05-16T12:46:42;101022.28;;;14.80;85.19
18504;BME280;9381;54.244;10.074;2023-05-16T12:51:50;101028.22;;;14.88;83.12
18504;BME280;9381;54.244;10.074;2023-05-16T12:56:51;101020.72;;;14.61;82.94
18504;BME280;9381;54.244;10.074;2023-05-16T13:01:51;101020.31;;;15.77;85.04
18504;BME280;9381;54.244;10.074;2023-05-16T13:06:51;101012.22;;;15.94;79.48
18504;BME280;9381;54.244;10.074;2023-05-16T13:11:52;101017.34;;;15.28;79.51
18504;BME280;9381;54.244;10.074;2023-05-16T13:16:52;101022.28;;;15.03;81.58
18504;BME280;9381;54.244;10.074;2023-05-16T13:21:53;101024.88;;;14.98;80.91
18504;BME280;9381;54.244;10.074;2023-05-16T13:26:53;101031.03;;;14.93;72.45
18504;BME280;9381;54.244;10.074;2023-05-16T13:31:54;101036.94;;;14.79;73.67
18504;BME280;9381;54.244;10.074;2023-05-16T13:36:54;101026.75;;;15.09;72.10
18504;BME280;9381;54.244;10.074;2023-05-16T13:41:55;101037.53;;;15.15;71.12
18504;BME280;9381;54.244;10.074;2023-05-16T13:46:55;101047.84;;;15.02;71.76
18504;BME280;9381;54.244;10.074;2023-05-16T13:51:56;101050.22;;;14.87;69.24
18504;BME280;9381;54.244;10.074;2023-05-16T13:56:57;101049.59;;;14.62;70.25
18504;BME280;9381;54.244;10.074;2023-05-16T14:01:58;101052.19;;;14.16;70.46
18504;BME280;9381;54.244;10.074;2023-05-16T14:06:58;101067.97;;;14.67;69.11
18504;BME280;9381;54.244;10.074;2023-05-16T14:11:58;101058.88;;;14.84;65.33
18504;BME280;9381;54.244;10.074;2023-05-16T14:16:59;101069.72;;;14.61;64.43
18504;BME280;9381;54.244;10.074;2023-05-16T14:21:59;101059.97;;;14.13;66.19
18504;BME280;9381;54.244;10.074;2023-05-16T14:27:00;101045.41;;;13.48;67.68
18504;BME280;9381;54.244;10.074;2023-05-16T14:32:02;101052.31;;;13.62;69.37
18504;BME280;9381;54.244;10.074;2023-05-16T14:37:02;101062.59;;;13.24;66.98
18504;BME280;9381;54.244;10.074;2023-05-16T14:42:03;101061.13;;;13.28;68.36
18504;BME280;9381;54.244;10.074;2023-05-16T14:47:04;101062.47;;;13.19;65.82
18504;BME280;9381;54.244;10.074;2023-05-16T14:52:04;101059.75;;;13.37;65.37
18504;BME280;9381;54.244;10.074;2023-05-16T14:57:05;101072.25;;;13.02;69.47
18504;BME280;9381;54.244;10.074;2023-05-16T15:02:06;101084.47;;;12.87;71.66
18504;BME280;9381;54.244;10.074;2023-05-16T15:07:06;101097.44;;;12.60;76.67
18504;BME280;9381;54.244;10.074;2023-05-16T15:12:07;101124.13;;;12.32;82.28
18504;BME280;9381;54.244;10.074;2023-05-16T15:17:07;101118.19;;;11.73;87.00
18504;BME280;9381;54.244;10.074;2023-05-16T15:22:08;101118.59;;;11.70;91.82
18504;BME280;9381;54.244;10.074;2023-05-16T15:27:09;101115.34;;;11.43;93.03
18504;BME280;9381;54.244;10.074;2023-05-16T15:32:10;101114.81;;;11.02;95.52
18504;BME280;9381;54.244;10.074;2023-05-16T15:37:12;101120.00;;;10.38;100.00
18504;BME280;9381;54.244;10.074;2023-05-16T15:42:13;101111.44;;;10.22;100.00
18504;BME280;9381;54.244;10.074;2023-05-16T15:47:13;101108.31;;;10.18;100.00
18504;BME280;9381;54.244;10.074;2023-05-16T15:52:14;101103.66;;;9.99;100.00
18504;BME280;9381;54.244;10.074;2023-05-16T15:57:14;101088.06;;;9.95;100.00
18504;BME280;9381;54.244;10.074;2023-05-16T16:02:15;101094.97;;;10.04;100.00
18504;BME280;9381;54.244;10.074;2023-05-16T16:07:16;101099.91;;;10.00;100.00
18504;BME280;9381;54.244;10.074;2023-05-16T16:12:17;101101.25;;;10.30;100.00
18504;BME280;9381;54.244;10.074;2023-05-16T16:17:17;101105.25;;;10.60;100.00
18504;BME280;9381;54.244;10.074;2023-05-16T16:22:18;101110.25;;;10.70;100.00
18504;BME280;9381;54.244;10.074;2023-05-16T16:27:18;101109.59;;;10.81;100.00
18504;BME280;9381;54.244;10.074;2023-05-16T16:32:19;101107.94;;;10.80;100.00
18504;BME280;9381;54.244;10.074;2023-05-16T16:37:19;101109.41;;;10.63;100.00
18504;BME280;9381;54.244;10.074;2023-05-16T16:42:20;101106.69;;;10.89;100.00
18504;BME280;9381;54.244;10.074;2023-05-16T16:47:21;101103.78;;;11.10;100.00
18504;BME280;9381;54.244;10.074;2023-05-16T16:52:22;101103.72;;;11.23;100.00
18504;BME280;9381;54.244;10.074;2023-05-16T16:57:22;101103.31;;;11.19;100.00
18504;BME280;9381;54.244;10.074;2023-05-16T17:02:22;101116.44;;;11.29;100.00
18504;BME280;9381;54.244;10.074;2023-05-16T17:07:23;101125.38;;;11.29;100.00
18504;BME280;9381;54.244;10.074;2023-05-16T17:12:23;101101.69;;;11.12;100.00
18504;BME280;9381;54.244;10.074;2023-05-16T17:17:27;101094.59;;;11.04;100.00
18504;BME280;9381;54.244;10.074;2023-05-16T17:22:27;101091.69;;;11.19;100.00
18504;BME280;9381;54.244;10.074;2023-05-16T17:27:28;101085.00;;;11.15;100.00
18504;BME280;9381;54.244;10.074;2023-05-16T17:32:28;101091.19;;;11.35;100.00
18504;BME280;9381;54.244;10.074;2023-05-16T17:37:29;101092.81;;;11.62;100.00
18504;BME280;9381;54.244;10.074;2023-05-16T17:42:29;101095.25;;;11.76;100.00
18504;BME280;9381;54.244;10.074;2023-05-16T17:47:30;101092.13;;;11.79;100.00
18504;BME280;9381;54.244;10.074;2023-05-16T17:52:30;101100.97;;;11.99;100.00
18504;BME280;9381;54.244;10.074;2023-05-16T17:57:31;101091.75;;;12.06;100.00
18504;BME280;9381;54.244;10.074;2023-05-16T18:02:32;101100.28;;;12.10;100.00
18504;BME280;9381;54.244;10.074;2023-05-16T18:07:32;101113.88;;;12.03;100.00
18504;BME280;9381;54.244;10.074;2023-05-16T18:12:33;101130.41;;;12.26;100.00
18504;BME280;9381;54.244;10.074;2023-05-16T18:17:35;101127.94;;;12.25;100.00
18504;BME280;9381;54.244;10.074;2023-05-16T18:22:36;101135.06;;;12.19;100.00
18504;BME280;9381;54.244;10.074;2023-05-16T18:27:36;101129.97;;;11.98;100.00
18504;BME280;9381;54.244;10.074;2023-05-16T18:32:37;101145.81;;;11.95;99.75
18504;BME280;9381;54.244;10.074;2023-05-16T18:37:37;101153.13;;;11.94;99.31
18504;BME280;9381;54.244;10.074;2023-05-16T18:42:38;101152.03;;;12.02;98.52
18504;BME280;9381;54.244;10.074;2023-05-16T18:47:38;101151.69;;;11.92;97.69
18504;BME280;9381;54.244;10.074;2023-05-16T18:52:38;101150.75;;;11.61;97.72
18504;BME280;9381;54.244;10.074;2023-05-16T18:57:39;101159.47;;;11.63;97.30
18504;BME280;9381;54.244;10.074;2023-05-16T19:02:40;101162.84;;;11.65;96.60
18504;BME280;9381;54.244;10.074;2023-05-16T19:07:41;101172.00;;;11.70;96.55
18504;BME280;9381;54.244;10.074;2023-05-16T19:12:41;101180.53;;;11.67;97.64
18504;BME280;9381;54.244;10.074;2023-05-16T19:17:45;101181.56;;;11.72;98.32
18504;BME280;9381;54.244;10.074;2023-05-16T19:22:46;101189.34;;;11.37;98.61
18504;BME280;9381;54.244;10.074;2023-05-16T19:27:46;101193.88;;;11.43;98.38
18504;BME280;9381;54.244;10.074;2023-05-16T19:32:46;101195.59;;;11.31;98.29
18504;BME280;9381;54.244;10.074;2023-05-16T19:37:47;101202.88;;;11.37;99.16
18504;BME280;9381;54.244;10.074;2023-05-16T19:42:47;101209.53;;;11.08;100.00
18504;BME280;9381;54.244;10.074;2023-05-16T19:47:48;101209.53;;;11.15;100.00
18504;BME280;9381;54.244;10.074;2023-05-16T19:52:48;101206.22;;;11.13;100.00
18504;BME280;9381;54.244;10.074;2023-05-16T19:57:48;101213.28;;;11.14;100.00
18504;BME280;9381;54.244;10.074;2023-05-16T20:02:51;101200.81;;;11.13;100.00
18504;BME280;9381;54.244;10.074;2023-05-16T20:07:51;101209.13;;;11.05;100.00
18504;BME280;9381;54.244;10.074;2023-05-16T20:12:53;101209.13;;;11.05;100.00
18504;BME280;9381;54.244;10.074;2023-05-16T20:17:53;101203.28;;;11.08;100.00
18504;BME280;9381;54.244;10.074;2023-05-16T20:22:54;101216.63;;;11.16;100.00
18504;BME280;9381;54.244;10.074;2023-05-16T20:27:54;101216.00;;;11.33;100.00
18504;BME280;9381;54.244;10.074;2023-05-16T20:32:55;101207.84;;;11.27;100.00
18504;BME280;9381;54.244;10.074;2023-05-16T20:37:55;101204.13;;;11.28;100.00
18504;BME280;9381;54.244;10.074;2023-05-16T20:42:55;101211.19;;;11.22;100.00
18504;BME280;9381;54.244;10.074;2023-05-16T20:47:56;101206.19;;;11.26;100.00
18504;BME280;9381;54.244;10.074;2023-05-16T20:52:56;101205.16;;;11.27;100.00
18504;BME280;9381;54.244;10.074;2023-05-16T20:57:57;101210.38;;;11.22;100.00
18504;BME280;9381;54.244;10.074;2023-05-16T21:02:57;101211.22;;;11.29;100.00
18504;BME280;9381;54.244;10.074;2023-05-16T21:07:58;101217.88;;;11.20;100.00
18504;BME280;9381;54.244;10.074;2023-05-16T21:12:58;101209.13;;;11.18;100.00
18504;BME280;9381;54.244;10.074;2023-05-16T21:17:59;101215.38;;;11.18;100.00
18504;BME280;9381;54.244;10.074;2023-05-16T21:22:59;101218.28;;;11.10;100.00
18504;BME280;9381;54.244;10.074;2023-05-16T21:27:59;101218.09;;;11.05;100.00
18504;BME280;9381;54.244;10.074;2023-05-16T21:33:00;101218.47;;;11.09;100.00
18504;BME280;9381;54.244;10.074;2023-05-16T21:38:01;101221.63;;;11.06;100.00
18504;BME280;9381;54.244;10.074;2023-05-16T21:43:01;101225.38;;;10.92;100.00
18504;BME280;9381;54.244;10.074;2023-05-16T21:48:02;101228.69;;;11.07;100.00
18504;BME280;9381;54.244;10.074;2023-05-16T21:53:02;101223.91;;;11.09;100.00
18504;BME280;9381;54.244;10.074;2023-05-16T21:58:03;101230.16;;;11.16;100.00
18504;BME280;9381;54.244;10.074;2023-05-16T22:03:03;101233.69;;;10.97;100.00
18504;BME280;9381;54.244;10.074;2023-05-16T22:08:03;101225.97;;;11.13;100.00
18504;BME280;9381;54.244;10.074;2023-05-16T22:13:04;101237.03;;;11.12;100.00
18504;BME280;9381;54.244;10.074;2023-05-16T22:18:04;101226.22;;;11.12;100.00
18504;BME280;9381;54.244;10.074;2023-05-16T22:23:05;101223.28;;;11.20;100.00
18504;BME280;9381;54.244;10.074;2023-05-16T22:28:05;101235.38;;;11.24;100.00
18504;BME280;9381;54.244;10.074;2023-05-16T22:33:05;101251.00;;;11.22;100.00
18504;BME280;9381;54.244;10.074;2023-05-16T22:38:06;101253.69;;;11.02;100.00
18504;BME280;9381;54.244;10.074;2023-05-16T22:43:06;101249.72;;;11.11;100.00
18504;BME280;9381;54.244;10.074;2023-05-16T22:48:06;101259.72;;;11.04;100.00
18504;BME280;9381;54.244;10.074;2023-05-16T22:53:07;101269.28;;;10.94;100.00
18504;BME280;9381;54.244;10.074;2023-05-16T22:58:07;101266.34;;;10.95;100.00
18504;BME280;9381;54.244;10.074;2023-05-16T23:03:07;101272.38;;;10.84;100.00
18504;BME280;9381;54.244;10.074;2023-05-16T23:08:07;101272.59;;;10.83;99.08
18504;BME280;9381;54.244;10.074;2023-05-16T23:13:08;101278.53;;;10.46;99.17
18504;BME280;9381;54.244;10.074;2023-05-16T23:18:08;101279.69;;;10.24;100.00
18504;BME280;9381;54.244;10.074;2023-05-16T23:23:09;101302.97;;;10.25;100.00
18504;BME280;9381;54.244;10.074;2023-05-16T23:28:09;101291.97;;;10.33;100.00
18504;BME280;9381;54.244;10.074;2023-05-16T23:33:09;101304.69;;;10.32;100.00
18504;BME280;9381;54.244;10.074;2023-05-16T23:38:10;101300.88;;;10.27;99.36
18504;BME280;9381;54.244;10.074;2023-05-16T23:43:10;101290.06;;;10.20;97.81
18504;BME280;9381;54.244;10.074;2023-05-16T23:48:10;101306.28;;;10.20;96.26
18504;BME280;9381;54.244;10.074;2023-05-16T23:53:11;101312.94;;;10.18;96.73
18504;BME280;9381;54.244;10.074;2023-05-16T23:58:11;101318.72;;;10.15;96.37
